createdAt,value
2024-02-21T00:00:47.141Z,19.70
2024-02-21T00:03:14.041Z,19.70
2024-02-21T00:05:40.918Z,19.70
2024-02-21T00:08:08.024Z,19.70
2024-02-21T00:10:36.308Z,19.70
2024-02-21T00:13:03.481Z,19.70
2024-02-21T00:15:30.322Z,19.70
2024-02-21T00:17:57.149Z,19.70
2024-02-21T00:20:23.970Z,19.60
2024-02-21T00:22:50.861Z,19.70
2024-02-21T00:25:17.894Z,19.60
2024-02-21T00:27:44.713Z,19.60
2024-02-21T00:30:12.177Z,19.60
2024-02-21T00:32:38.994Z,19.60
2024-02-21T00:35:06.103Z,19.60
2024-02-21T00:37:33.243Z,19.60
2024-02-21T00:40:00.066Z,19.60
2024-02-21T00:42:26.910Z,19.50
2024-02-21T00:44:53.678Z,19.50
2024-02-21T00:47:20.450Z,19.50
2024-02-21T00:49:47.326Z,19.50
2024-02-21T00:52:14.144Z,19.50
2024-02-21T00:54:48.111Z,19.50
2024-02-21T00:57:20.382Z,19.50
2024-02-21T00:59:47.279Z,19.50
2024-02-21T01:02:14.345Z,19.50
2024-02-21T01:04:41.298Z,19.50
2024-02-21T01:07:08.221Z,19.50
2024-02-21T01:09:34.966Z,19.50
2024-02-21T01:12:01.869Z,19.50
2024-02-21T01:14:29.065Z,19.50
2024-02-21T01:16:56.150Z,19.50
2024-02-21T01:19:23.224Z,19.50
2024-02-21T01:21:50.074Z,19.50
2024-02-21T01:24:16.901Z,19.50
2024-02-21T01:26:43.682Z,19.50
2024-02-21T01:29:10.675Z,19.50
2024-02-21T01:31:37.491Z,19.50
2024-02-21T01:34:04.277Z,19.50
2024-02-21T01:36:31.013Z,19.50
2024-02-21T01:38:57.848Z,19.50
2024-02-21T01:41:24.601Z,19.50
2024-02-21T01:43:51.551Z,19.50
2024-02-21T01:46:19.083Z,19.50
2024-02-21T01:48:47.445Z,19.50
2024-02-21T01:51:14.529Z,19.40
2024-02-21T01:53:44.743Z,19.40
2024-02-21T01:56:13.220Z,19.40
2024-02-21T01:58:43.370Z,19.40
2024-02-21T02:01:11.569Z,19.40
2024-02-21T02:03:38.661Z,19.40
2024-02-21T02:06:10.210Z,19.40
2024-02-21T02:08:36.975Z,19.40
2024-02-21T02:11:04.305Z,19.40
2024-02-21T02:13:31.161Z,19.40
2024-02-21T02:15:57.947Z,19.40
2024-02-21T02:18:24.966Z,19.40
2024-02-21T02:20:53.139Z,19.40
2024-02-21T02:23:33.162Z,19.40
2024-02-21T02:26:00.213Z,19.40
2024-02-21T02:28:27.164Z,19.40
2024-02-21T02:30:54.349Z,19.40
2024-02-21T02:33:21.441Z,19.40
2024-02-21T02:35:48.516Z,19.30
2024-02-21T02:38:16.215Z,19.30
2024-02-21T02:40:43.699Z,19.40
2024-02-21T02:43:11.014Z,19.40
2024-02-21T02:45:37.997Z,19.30
2024-02-21T02:48:05.553Z,19.30
2024-02-21T02:50:32.497Z,19.30
2024-02-21T02:52:59.374Z,19.30
2024-02-21T02:55:27.636Z,19.30
2024-02-21T02:57:55.157Z,19.30
2024-02-21T03:00:22.136Z,19.30
2024-02-21T03:02:51.088Z,19.30
2024-02-21T03:05:20.380Z,19.30
2024-02-21T03:07:48.173Z,19.30
2024-02-21T03:10:17.588Z,19.40
2024-02-21T03:12:45.015Z,19.30
2024-02-21T03:15:11.862Z,19.30
2024-02-21T03:17:39.574Z,19.30
2024-02-21T03:20:09.767Z,19.30
2024-02-21T03:22:37.340Z,19.30
2024-02-21T03:25:04.604Z,19.30
2024-02-21T03:27:31.363Z,19.30
2024-02-21T03:29:58.151Z,19.30
2024-02-21T03:32:25.392Z,19.30
2024-02-21T03:34:52.241Z,19.30
2024-02-21T03:37:19.800Z,19.30
2024-02-21T03:39:46.710Z,19.30
2024-02-21T03:42:13.599Z,19.30
2024-02-21T03:44:40.555Z,19.30
2024-02-21T03:47:07.465Z,19.30
2024-02-21T03:49:34.286Z,19.30
2024-02-21T03:52:01.062Z,19.30
2024-02-21T03:54:28.170Z,19.30
2024-02-21T03:56:55.145Z,19.30
2024-02-21T03:59:23.556Z,19.30
2024-02-21T04:01:57.283Z,19.30
2024-02-21T04:04:24.284Z,19.30
2024-02-21T04:06:51.466Z,19.30
2024-02-21T04:09:18.980Z,19.30
2024-02-21T04:11:46.094Z,19.30
2024-02-21T04:14:13.270Z,19.30
2024-02-21T04:16:41.245Z,19.30
2024-02-21T04:19:08.949Z,19.30
2024-02-21T04:21:36.220Z,19.30
2024-02-21T04:24:07.224Z,19.30
2024-02-21T04:26:34.909Z,19.30
2024-02-21T04:29:02.063Z,19.30
2024-02-21T04:31:29.281Z,19.30
2024-02-21T04:33:56.640Z,19.20
2024-02-21T04:36:23.373Z,19.20
2024-02-21T04:38:51.346Z,19.20
2024-02-21T04:41:18.535Z,19.20
2024-02-21T04:43:47.560Z,19.20
2024-02-21T04:46:14.451Z,19.20
2024-02-21T04:48:41.270Z,19.20
2024-02-21T04:51:08.064Z,19.20
2024-02-21T04:53:34.856Z,19.20
2024-02-21T04:56:01.847Z,19.20
2024-02-21T04:58:28.857Z,19.20
2024-02-21T05:00:56.358Z,19.20
2024-02-21T05:03:23.430Z,19.20
2024-02-21T05:05:50.683Z,19.20
2024-02-21T05:08:17.686Z,19.20
2024-02-21T05:10:44.853Z,19.20
2024-02-21T05:13:11.745Z,19.20
2024-02-21T05:15:38.528Z,19.20
2024-02-21T05:18:05.602Z,19.20
2024-02-21T05:20:32.627Z,19.20
2024-02-21T05:22:59.698Z,19.20
2024-02-21T05:25:26.769Z,19.20
2024-02-21T05:27:57.058Z,19.20
2024-02-21T05:30:24.011Z,19.20
2024-02-21T05:32:50.893Z,19.20
2024-02-21T05:35:17.917Z,19.20
2024-02-21T05:37:44.796Z,19.20
2024-02-21T05:40:14.444Z,19.20
2024-02-21T05:42:41.431Z,19.20
2024-02-21T05:45:08.456Z,19.20
2024-02-21T05:47:35.287Z,19.20
2024-02-21T05:50:02.196Z,19.20
2024-02-21T05:52:29.013Z,19.20
2024-02-21T05:54:55.813Z,19.20
2024-02-21T05:57:22.598Z,19.20
2024-02-21T05:59:49.390Z,19.20
2024-02-21T06:02:16.303Z,19.20
2024-02-21T06:04:44.043Z,19.20
2024-02-21T06:07:11.191Z,19.20
2024-02-21T06:09:38.162Z,19.20
2024-02-21T06:12:05.278Z,19.20
2024-02-21T06:14:32.147Z,19.20
2024-02-21T06:16:59.168Z,19.20
2024-02-21T06:19:26.070Z,19.20
2024-02-21T06:21:52.914Z,19.20
2024-02-21T06:24:19.647Z,19.20
2024-02-21T06:26:46.532Z,19.20
2024-02-21T06:29:14.750Z,19.20
2024-02-21T06:31:42.051Z,19.20
2024-02-21T06:34:09.009Z,19.20
2024-02-21T06:36:35.933Z,19.20
2024-02-21T06:39:02.757Z,19.10
2024-02-21T06:41:31.661Z,19.10
2024-02-21T06:43:58.593Z,19.10
2024-02-21T06:46:30.422Z,19.10
2024-02-21T06:48:58.062Z,19.10
2024-02-21T06:51:26.129Z,19.10
2024-02-21T06:53:53.270Z,19.20
2024-02-21T06:56:20.174Z,19.10
2024-02-21T06:58:47.005Z,19.10
2024-02-21T07:01:13.904Z,19.10
2024-02-21T07:03:40.628Z,19.10
2024-02-21T07:06:07.650Z,19.10
2024-02-21T07:08:34.569Z,19.10
2024-02-21T07:11:01.441Z,19.10
2024-02-21T07:13:28.240Z,19.10
2024-02-21T07:15:55.003Z,19.10
2024-02-21T07:18:21.968Z,19.10
2024-02-21T07:20:48.984Z,19.10
2024-02-21T07:23:15.769Z,19.10
2024-02-21T07:25:42.615Z,19.10
2024-02-21T07:28:09.371Z,19.10
2024-02-21T07:30:36.294Z,19.10
2024-02-21T07:33:03.568Z,19.10
2024-02-21T07:35:30.404Z,19.10
2024-02-21T07:37:57.240Z,19.10
2024-02-21T07:40:24.526Z,19.10
2024-02-21T07:42:52.206Z,19.10
2024-02-21T07:45:24.991Z,19.10
2024-02-21T07:47:52.090Z,19.10
2024-02-21T07:50:18.999Z,19.10
2024-02-21T07:52:45.812Z,19.10
2024-02-21T07:55:12.589Z,19.10
2024-02-21T07:57:39.401Z,19.20
2024-02-21T08:00:06.920Z,19.20
2024-02-21T08:02:33.692Z,19.20
2024-02-21T08:05:00.538Z,19.20
2024-02-21T08:07:30.234Z,19.10
2024-02-21T08:09:57.252Z,19.20
2024-02-21T08:12:23.973Z,19.20
2024-02-21T08:14:50.719Z,19.10
2024-02-21T08:17:17.448Z,19.10
2024-02-21T08:19:44.204Z,19.20
2024-02-21T08:22:11.062Z,19.20
2024-02-21T08:24:37.758Z,19.10
2024-02-21T08:27:05.007Z,19.10
2024-02-21T08:29:31.709Z,19.20
2024-02-21T08:31:58.598Z,19.20
2024-02-21T08:34:25.531Z,19.10
2024-02-21T08:36:52.375Z,19.10
2024-02-21T08:39:19.127Z,19.20
2024-02-21T08:41:52.712Z,19.10
2024-02-21T08:44:28.284Z,19.20
2024-02-21T08:46:55.545Z,19.10
2024-02-21T08:49:22.475Z,19.20
2024-02-21T08:51:49.575Z,19.20
2024-02-21T08:54:19.328Z,19.20
2024-02-21T08:56:46.066Z,19.20
2024-02-21T08:59:13.008Z,19.20
2024-02-21T09:01:39.927Z,19.30
2024-02-21T09:04:06.891Z,19.30
2024-02-21T09:06:35.065Z,19.40
2024-02-21T09:09:02.279Z,19.40
2024-02-21T09:11:29.613Z,19.40
2024-02-21T09:13:57.011Z,19.40
2024-02-21T09:16:24.943Z,19.40
2024-02-21T09:18:52.176Z,19.40
2024-02-21T09:21:19.283Z,19.40
2024-02-21T09:23:47.297Z,19.40
2024-02-21T09:26:17.309Z,19.40
2024-02-21T09:28:45.535Z,19.40
2024-02-21T09:31:12.673Z,19.40
2024-02-21T09:33:40.011Z,19.40
2024-02-21T09:36:07.237Z,19.40
2024-02-21T09:38:34.002Z,19.40
2024-02-21T09:41:23.936Z,19.40
2024-02-21T09:43:55.633Z,19.40
2024-02-21T09:46:31.569Z,19.40
2024-02-21T09:49:29.370Z,19.40
2024-02-21T09:51:57.785Z,19.40
2024-02-21T09:54:24.738Z,19.40
2024-02-21T09:56:51.612Z,19.50
2024-02-21T09:59:19.113Z,19.50
2024-02-21T10:01:48.146Z,19.50
2024-02-21T10:04:15.272Z,19.50
2024-02-21T10:06:43.058Z,19.50
2024-02-21T10:09:09.910Z,19.50
2024-02-21T10:11:37.884Z,19.50
2024-02-21T10:14:06.666Z,19.50
2024-02-21T10:16:34.824Z,19.50
2024-02-21T10:19:02.043Z,19.50
2024-02-21T10:21:29.083Z,19.50
2024-02-21T10:23:55.981Z,19.50
2024-02-21T10:26:23.115Z,19.50
2024-02-21T10:28:52.979Z,19.50
2024-02-21T10:31:25.903Z,19.50
2024-02-21T10:34:00.824Z,19.50
2024-02-21T10:36:28.046Z,19.60
2024-02-21T10:38:57.999Z,19.60
2024-02-21T10:41:25.638Z,19.60
2024-02-21T10:43:56.838Z,19.60
2024-02-21T10:46:25.008Z,19.60
2024-02-21T10:49:08.412Z,19.70
2024-02-21T10:51:38.488Z,19.70
2024-02-21T10:54:25.872Z,19.70
2024-02-21T10:56:53.063Z,19.70
2024-02-21T10:59:20.718Z,19.70
2024-02-21T11:01:48.508Z,19.70
2024-02-21T11:04:15.734Z,19.70
2024-02-21T11:06:43.765Z,19.70
2024-02-21T11:09:12.402Z,19.70
2024-02-21T11:11:45.481Z,19.70
2024-02-21T11:14:20.126Z,19.70
2024-02-21T11:16:47.860Z,19.70
2024-02-21T11:19:28.615Z,19.70
2024-02-21T11:21:56.542Z,19.70
2024-02-21T11:24:34.321Z,19.70
2024-02-21T11:27:20.850Z,19.70
2024-02-21T11:29:50.068Z,19.70
2024-02-21T11:32:17.755Z,19.70
2024-02-21T11:35:06.800Z,19.70
2024-02-21T11:37:40.024Z,19.70
2024-02-21T11:40:10.956Z,19.70
2024-02-21T11:42:37.929Z,19.70
2024-02-21T11:45:05.056Z,19.70
2024-02-21T11:47:31.923Z,19.70
2024-02-21T11:49:58.801Z,19.80
2024-02-21T11:52:27.714Z,19.90
2024-02-21T11:54:56.937Z,19.90
2024-02-21T11:57:23.767Z,19.90
2024-02-21T11:59:56.527Z,19.90
2024-02-21T12:02:25.186Z,19.90
2024-02-21T12:04:52.936Z,20.00
2024-02-21T12:07:20.178Z,20.00
2024-02-21T12:09:47.287Z,20.00
2024-02-21T12:12:14.127Z,20.00
2024-02-21T12:14:40.914Z,20.00
2024-02-21T12:17:08.279Z,19.90
2024-02-21T12:19:35.665Z,19.90
2024-02-21T12:22:06.928Z,19.90
2024-02-21T12:24:34.200Z,19.90
2024-02-21T12:27:01.405Z,19.90
2024-02-21T12:29:29.930Z,19.90
2024-02-21T12:31:56.925Z,20.00
2024-02-21T12:34:34.734Z,20.00
2024-02-21T12:37:14.185Z,20.00
2024-02-21T12:39:41.197Z,20.00
2024-02-21T12:42:07.919Z,20.00
2024-02-21T12:44:35.271Z,19.90
2024-02-21T12:47:02.200Z,20.00
2024-02-21T12:49:31.032Z,20.00
2024-02-21T12:51:57.964Z,20.00
2024-02-21T12:54:24.814Z,19.90
2024-02-21T12:56:51.575Z,19.90
2024-02-21T12:59:18.425Z,19.90
2024-02-21T13:01:45.420Z,19.90
2024-02-21T13:04:13.060Z,19.90
2024-02-21T13:06:40.101Z,20.00
2024-02-21T13:09:09.343Z,20.00
2024-02-21T13:11:36.617Z,20.00
2024-02-21T13:14:03.649Z,20.00
2024-02-21T13:16:30.557Z,20.00
2024-02-21T13:18:57.526Z,20.00
2024-02-21T13:21:24.454Z,20.00
2024-02-21T13:23:51.266Z,20.00
2024-02-21T13:26:18.261Z,20.00
2024-02-21T13:28:46.315Z,20.00
2024-02-21T13:31:13.506Z,20.00
2024-02-21T13:33:40.504Z,20.00
2024-02-21T13:36:07.644Z,20.00
2024-02-21T13:38:34.513Z,20.00
2024-02-21T13:41:01.915Z,20.00
2024-02-21T13:43:29.383Z,20.00
2024-02-21T13:46:01.070Z,20.00
2024-02-21T13:48:28.556Z,20.00
2024-02-21T13:50:55.586Z,20.00
2024-02-21T13:53:23.760Z,20.00
2024-02-21T13:55:51.280Z,20.00
2024-02-21T13:58:18.729Z,20.00
2024-02-21T14:00:45.910Z,20.00
2024-02-21T14:03:13.060Z,20.00
2024-02-21T14:05:43.553Z,20.00
2024-02-21T14:08:10.900Z,20.00
2024-02-21T14:10:38.486Z,20.00
2024-02-21T14:13:05.482Z,20.00
2024-02-21T14:15:32.244Z,20.00
2024-02-21T14:17:59.063Z,20.10
2024-02-21T14:20:26.102Z,20.00
2024-02-21T14:22:53.044Z,20.00
2024-02-21T14:25:19.944Z,20.00
2024-02-21T14:27:46.707Z,20.00
2024-02-21T14:30:13.943Z,20.00
2024-02-21T14:32:44.613Z,20.00
2024-02-21T14:35:11.539Z,20.00
2024-02-21T14:37:38.430Z,20.00
2024-02-21T14:40:05.677Z,20.00
2024-02-21T14:42:32.350Z,20.00
2024-02-21T14:45:05.238Z,20.00
2024-02-21T14:47:33.149Z,20.00
2024-02-21T14:50:00.870Z,20.00
2024-02-21T14:52:29.280Z,20.00
2024-02-21T14:54:56.862Z,20.00
2024-02-21T14:57:23.759Z,20.00
2024-02-21T14:59:53.265Z,20.00
2024-02-21T15:02:20.332Z,19.90
2024-02-21T15:04:47.139Z,19.90
2024-02-21T15:07:13.934Z,20.00
2024-02-21T15:09:40.661Z,19.90
2024-02-21T15:12:07.834Z,19.90
2024-02-21T15:14:34.963Z,19.90
2024-02-21T15:17:01.825Z,19.90
2024-02-21T15:19:29.054Z,19.90
2024-02-21T15:21:56.038Z,19.90
2024-02-21T15:24:22.886Z,19.90
2024-02-21T15:26:49.621Z,19.90
2024-02-21T15:29:16.412Z,19.90
2024-02-21T15:31:47.888Z,19.90
2024-02-21T15:34:16.839Z,19.90
2024-02-21T15:36:43.906Z,19.90
2024-02-21T15:39:12.012Z,20.00
2024-02-21T15:41:38.839Z,20.00
2024-02-21T15:44:06.161Z,20.00
2024-02-21T15:46:35.180Z,19.90
2024-02-21T15:49:02.246Z,19.90
2024-02-21T15:51:31.208Z,19.90
2024-02-21T15:53:59.276Z,19.90
2024-02-21T15:56:26.140Z,19.90
2024-02-21T15:58:52.966Z,19.90
2024-02-21T16:01:19.792Z,19.90
2024-02-21T16:03:46.944Z,19.90
2024-02-21T16:06:13.896Z,19.90
2024-02-21T16:08:42.292Z,19.90
2024-02-21T16:11:18.760Z,19.90
2024-02-21T16:13:49.372Z,19.90
2024-02-21T16:16:16.628Z,19.90
2024-02-21T16:18:44.044Z,19.90
2024-02-21T16:21:10.799Z,19.90
2024-02-21T16:23:37.525Z,19.90
2024-02-21T16:26:04.405Z,19.90
2024-02-21T16:28:31.832Z,19.90
2024-02-21T16:30:59.277Z,19.90
2024-02-21T16:33:26.461Z,19.90
2024-02-21T16:35:53.664Z,19.90
2024-02-21T16:38:20.590Z,19.90
2024-02-21T16:40:48.668Z,20.00
2024-02-21T16:43:15.453Z,19.90
2024-02-21T16:45:42.713Z,19.90
2024-02-21T16:48:09.568Z,19.90
2024-02-21T16:50:45.659Z,19.90
2024-02-21T16:53:21.832Z,19.80
2024-02-21T16:55:49.935Z,19.80
2024-02-21T16:58:17.079Z,19.70
2024-02-21T17:00:43.983Z,19.80
2024-02-21T17:03:10.878Z,19.70
2024-02-21T17:05:38.444Z,19.70
2024-02-21T17:08:08.523Z,19.70
2024-02-21T17:10:37.213Z,19.70
2024-02-21T17:13:05.575Z,19.70
2024-02-21T17:15:32.366Z,19.70
2024-02-21T17:18:00.081Z,19.70
2024-02-21T17:20:27.104Z,19.70
2024-02-21T17:22:54.013Z,19.70
2024-02-21T17:25:20.852Z,19.70
2024-02-21T17:27:47.787Z,19.70
2024-02-21T17:30:14.848Z,19.70
2024-02-21T17:32:42.394Z,19.70
2024-02-21T17:35:09.655Z,19.70
2024-02-21T17:37:36.590Z,19.70
2024-02-21T17:40:05.602Z,19.70
2024-02-21T17:42:33.185Z,19.70
2024-02-21T17:44:59.916Z,19.70
2024-02-21T17:47:26.692Z,19.70
2024-02-21T17:49:53.651Z,19.70
2024-02-21T17:52:21.716Z,19.70
2024-02-21T17:54:48.723Z,19.70
2024-02-21T17:57:16.385Z,19.70
2024-02-21T17:59:44.059Z,19.70
2024-02-21T18:02:10.953Z,19.70
2024-02-21T18:04:38.284Z,19.70
2024-02-21T18:07:06.002Z,19.70
2024-02-21T18:09:32.875Z,19.70
2024-02-21T18:11:59.845Z,19.70
2024-02-21T18:14:26.610Z,19.70
2024-02-21T18:16:53.467Z,19.70
2024-02-21T18:19:23.765Z,19.70
2024-02-21T18:21:51.258Z,19.70
2024-02-21T18:24:18.074Z,19.70
2024-02-21T18:26:44.914Z,19.70
2024-02-21T18:29:11.936Z,19.60
2024-02-21T18:31:39.349Z,19.60
2024-02-21T18:34:06.293Z,19.60
2024-02-21T18:36:33.233Z,19.60
2024-02-21T18:39:00.027Z,19.60
2024-02-21T18:41:27.928Z,19.60
2024-02-21T18:43:55.306Z,19.50
2024-02-21T18:46:22.490Z,19.50
2024-02-21T18:48:49.357Z,19.60
2024-02-21T18:51:17.108Z,19.60
2024-02-21T18:53:43.989Z,19.50
2024-02-21T18:56:11.466Z,19.50
2024-02-21T18:58:38.352Z,19.50
2024-02-21T19:01:05.316Z,19.50
2024-02-21T19:03:32.122Z,19.50
2024-02-21T19:05:58.966Z,19.50
2024-02-21T19:08:25.792Z,19.50
2024-02-21T19:10:52.864Z,19.50
2024-02-21T19:13:21.606Z,19.50
2024-02-21T19:15:48.399Z,19.50
2024-02-21T19:18:15.495Z,19.50
2024-02-21T19:20:42.483Z,19.50
2024-02-21T19:23:10.268Z,19.50
2024-02-21T19:25:38.422Z,19.50
2024-02-21T19:28:05.487Z,19.50
2024-02-21T19:30:32.309Z,19.50
2024-02-21T19:32:59.131Z,19.50
2024-02-21T19:35:26.294Z,19.50
2024-02-21T19:37:53.165Z,19.50
2024-02-21T19:40:20.016Z,19.50
2024-02-21T19:42:46.803Z,19.50
2024-02-21T19:45:13.758Z,19.50
2024-02-21T19:47:43.403Z,19.50
2024-02-21T19:50:10.861Z,19.50
2024-02-21T19:52:37.694Z,19.50
2024-02-21T19:55:04.710Z,19.50
2024-02-21T19:57:31.512Z,19.50
2024-02-21T19:59:59.467Z,19.50
2024-02-21T20:02:27.081Z,19.50
2024-02-21T20:04:54.321Z,19.50
2024-02-21T20:07:25.457Z,19.50
2024-02-21T20:09:53.560Z,19.40
2024-02-21T20:12:21.448Z,19.40
2024-02-21T20:14:48.242Z,19.40
2024-02-21T20:17:15.257Z,19.40
2024-02-21T20:19:43.333Z,19.40
2024-02-21T20:22:10.359Z,19.40
2024-02-21T20:24:40.742Z,19.40
2024-02-21T20:27:08.187Z,19.40
2024-02-21T20:29:34.942Z,19.40
2024-02-21T20:32:02.871Z,19.40
2024-02-21T20:34:31.936Z,19.40
2024-02-21T20:36:59.065Z,19.40
2024-02-21T20:39:26.391Z,19.40
2024-02-21T20:41:53.104Z,19.40
2024-02-21T20:44:19.946Z,19.40
2024-02-21T20:46:46.826Z,19.40
2024-02-21T20:49:13.753Z,19.40
2024-02-21T20:51:41.034Z,19.40
2024-02-21T20:54:07.826Z,19.40
2024-02-21T20:56:35.096Z,19.40
2024-02-21T20:59:01.950Z,19.40
2024-02-21T21:01:28.840Z,19.40
2024-02-21T21:03:56.435Z,19.40
2024-02-21T21:06:23.546Z,19.40
2024-02-21T21:08:50.342Z,19.40
2024-02-21T21:11:19.909Z,19.40
2024-02-21T21:13:49.092Z,19.40
2024-02-21T21:16:17.508Z,19.50
2024-02-21T21:18:44.377Z,19.40
2024-02-21T21:21:11.186Z,19.40
2024-02-21T21:23:37.984Z,19.40
2024-02-21T21:26:05.017Z,19.40
2024-02-21T21:28:32.127Z,19.40
2024-02-21T21:30:58.935Z,19.50
2024-02-21T21:33:25.757Z,19.50
2024-02-21T21:35:54.063Z,19.40
2024-02-21T21:38:21.985Z,19.50
2024-02-21T21:40:48.952Z,19.50
2024-02-21T21:43:16.892Z,19.50
2024-02-21T21:45:43.728Z,19.50
2024-02-21T21:48:10.629Z,19.50
2024-02-21T21:50:37.572Z,19.50
2024-02-21T21:53:04.652Z,19.50
2024-02-21T21:55:32.608Z,19.50
2024-02-21T21:57:59.497Z,19.50
2024-02-21T22:00:26.369Z,19.50
2024-02-21T22:02:53.106Z,19.50
2024-02-21T22:05:20.104Z,19.50
2024-02-21T22:07:47.836Z,19.50
2024-02-21T22:10:15.499Z,19.50
2024-02-21T22:12:42.274Z,19.50
2024-02-21T22:15:09.652Z,19.50
2024-02-21T22:17:36.767Z,19.50
2024-02-21T22:20:04.235Z,19.50
2024-02-21T22:22:31.184Z,19.50
2024-02-21T22:24:58.001Z,19.50
2024-02-21T22:27:25.677Z,19.50
2024-02-21T22:29:53.997Z,19.50
2024-02-21T22:32:20.832Z,19.50
2024-02-21T22:34:47.763Z,19.50
2024-02-21T22:37:14.588Z,19.50
2024-02-21T22:39:41.413Z,19.50
2024-02-21T22:42:09.260Z,19.50
2024-02-21T22:44:42.834Z,19.50
2024-02-21T22:47:10.317Z,19.50
2024-02-21T22:49:37.302Z,19.50
2024-02-21T22:52:04.184Z,19.50
2024-02-21T22:54:32.225Z,19.50
2024-02-21T22:56:59.142Z,19.50
2024-02-21T22:59:26.453Z,19.50
2024-02-21T23:01:53.343Z,19.50
2024-02-21T23:04:20.165Z,19.50
2024-02-21T23:06:47.666Z,19.50
2024-02-21T23:09:16.640Z,19.50
2024-02-21T23:11:43.541Z,19.40
2024-02-21T23:14:10.508Z,19.40
2024-02-21T23:16:37.464Z,19.40
2024-02-21T23:19:04.326Z,19.40
2024-02-21T23:21:31.282Z,19.40
2024-02-21T23:23:58.214Z,19.50
2024-02-21T23:26:31.966Z,19.50
2024-02-21T23:28:59.857Z,19.50
2024-02-21T23:31:27.279Z,19.50
2024-02-21T23:33:54.287Z,19.50
2024-02-21T23:36:21.259Z,19.40
2024-02-21T23:38:48.091Z,19.50
2024-02-21T23:41:18.219Z,19.40
2024-02-21T23:43:45.707Z,19.40
2024-02-21T23:46:12.723Z,19.40
2024-02-21T23:48:40.129Z,19.40
2024-02-21T23:51:07.623Z,19.40
2024-02-21T23:53:34.618Z,19.40
2024-02-21T23:56:04.205Z,19.40
2024-02-21T23:58:31.230Z,19.40
